createdAt,value
2023-01-17T00:02:26.616Z,75.65
2023-01-17T00:05:12.953Z,75.54
2023-01-17T00:07:58.989Z,75.38
2023-01-17T00:10:30.757Z,75.25
2023-01-17T00:13:02.776Z,75.29
2023-01-17T00:15:33.293Z,75.04
2023-01-17T00:18:02.481Z,75.55
2023-01-17T00:20:50.460Z,75.93
2023-01-17T00:23:38.104Z,75.64
2023-01-17T00:26:13.179Z,75.35
2023-01-17T00:28:42.890Z,74.84
2023-01-17T00:31:12.855Z,74.83
2023-01-17T00:33:40.615Z,74.93
2023-01-17T00:36:09.589Z,75.23
2023-01-17T00:38:38.904Z,74.43
2023-01-17T00:41:09.867Z,74.71
2023-01-17T00:43:56.739Z,74.73
2023-01-17T00:46:44.151Z,74.81
2023-01-17T00:49:30.432Z,74.75
2023-01-17T00:52:16.908Z,74.82
2023-01-17T00:55:03.240Z,75.07
2023-01-17T00:57:51.205Z,74.81
2023-01-17T01:00:37.652Z,74.86
2023-01-17T01:03:27.963Z,74.79
2023-01-17T01:06:13.958Z,74.96
2023-01-17T01:09:00.129Z,74.54
2023-01-17T01:11:46.452Z,74.93
2023-01-17T01:14:34.449Z,74.77
2023-01-17T01:17:20.838Z,75.08
2023-01-17T01:20:06.940Z,75.09
2023-01-17T01:22:53.304Z,74.69
2023-01-17T01:25:39.673Z,74.67
2023-01-17T01:28:28.802Z,74.83
2023-01-17T01:31:18.985Z,74.95
2023-01-17T01:33:48.335Z,74.91
2023-01-17T01:36:17.560Z,75.15
2023-01-17T01:38:46.848Z,75.18
2023-01-17T01:41:16.302Z,74.67
2023-01-17T01:43:48.876Z,74.83
2023-01-17T01:46:24.241Z,75.18
2023-01-17T01:48:57.299Z,75.30
2023-01-17T01:51:30.111Z,75.24
2023-01-17T01:54:04.367Z,75.00
2023-01-17T01:56:34.639Z,75.33
2023-01-17T01:59:06.149Z,75.24
2023-01-17T02:01:37.153Z,75.40
2023-01-17T02:04:10.357Z,75.49
2023-01-17T02:06:43.695Z,75.25
2023-01-17T02:09:15.995Z,75.01
2023-01-17T02:11:47.598Z,75.22
2023-01-17T02:14:18.158Z,75.12
2023-01-17T02:16:59.634Z,74.84
2023-01-17T02:19:53.224Z,74.62
2023-01-17T02:23:03.669Z,74.68
2023-01-17T02:26:04.571Z,74.42
2023-01-17T02:28:48.986Z,74.71
2023-01-17T02:31:26.469Z,74.47
2023-01-17T02:34:02.472Z,74.14
2023-01-17T02:36:32.298Z,74.77
2023-01-17T02:39:07.664Z,74.64
2023-01-17T02:41:41.040Z,74.73
2023-01-17T02:44:11.152Z,74.38
2023-01-17T02:46:48.896Z,74.62
2023-01-17T02:49:21.406Z,74.21
2023-01-17T02:52:07.680Z,74.47
2023-01-17T02:55:02.905Z,74.94
2023-01-17T02:58:16.159Z,74.62
2023-01-17T03:00:59.707Z,74.62
2023-01-17T03:03:35.061Z,74.62
2023-01-17T03:06:12.201Z,74.69
2023-01-17T03:08:43.754Z,74.31
2023-01-17T03:11:13.649Z,74.52
2023-01-17T03:13:43.168Z,74.31
2023-01-17T03:16:17.586Z,74.50
2023-01-17T03:18:48.593Z,74.28
2023-01-17T03:21:17.693Z,74.25
2023-01-17T03:23:46.861Z,74.52
2023-01-17T03:26:16.105Z,74.06
2023-01-17T03:28:45.310Z,74.50
2023-01-17T03:31:16.579Z,74.40
2023-01-17T03:33:47.665Z,74.07
2023-01-17T03:36:17.088Z,74.56
2023-01-17T03:38:46.249Z,74.60
2023-01-17T03:41:15.264Z,74.78
2023-01-17T03:43:44.374Z,74.50
2023-01-17T03:46:21.064Z,74.58
2023-01-17T03:48:51.915Z,74.73
2023-01-17T03:51:21.045Z,74.81
2023-01-17T03:53:51.022Z,74.89
2023-01-17T03:56:20.317Z,74.71
2023-01-17T03:58:49.439Z,74.91
2023-01-17T04:01:19.435Z,74.46
2023-01-17T04:03:48.605Z,74.85
2023-01-17T04:06:19.699Z,75.38
2023-01-17T04:08:48.924Z,74.82
2023-01-17T04:11:18.124Z,74.95
2023-01-17T04:13:47.218Z,74.83
2023-01-17T04:16:19.264Z,74.88
2023-01-17T04:18:48.518Z,74.89
2023-01-17T04:21:19.125Z,74.60
2023-01-17T04:23:48.294Z,74.67
2023-01-17T04:26:17.415Z,74.43
2023-01-17T04:28:46.551Z,74.82
2023-01-17T04:31:17.698Z,74.76
2023-01-17T04:33:46.928Z,75.41
2023-01-17T04:36:15.958Z,75.53
2023-01-17T04:38:46.497Z,75.51
2023-01-17T04:41:15.628Z,75.63
2023-01-17T04:43:44.933Z,75.48
2023-01-17T04:46:14.112Z,75.72
2023-01-17T04:48:43.252Z,74.96
2023-01-17T04:51:12.364Z,74.86
2023-01-17T04:53:41.444Z,74.79
2023-01-17T04:56:12.051Z,74.30
2023-01-17T04:58:41.915Z,74.55
2023-01-17T05:01:11.444Z,74.43
2023-01-17T05:03:40.639Z,74.42
2023-01-17T05:06:09.795Z,74.54
2023-01-17T05:08:38.883Z,74.97
2023-01-17T05:11:08.132Z,74.82
2023-01-17T05:13:38.902Z,75.16
2023-01-17T05:16:08.471Z,75.18
2023-01-17T05:18:38.133Z,75.29
2023-01-17T05:21:07.425Z,75.22
2023-01-17T05:23:36.541Z,75.08
2023-01-17T05:26:05.686Z,75.41
2023-01-17T05:28:34.750Z,75.75
2023-01-17T05:31:05.391Z,76.90
2023-01-17T05:33:34.544Z,76.32
2023-01-17T05:36:04.045Z,75.80
2023-01-17T05:38:33.212Z,75.97
2023-01-17T05:41:02.515Z,76.40
2023-01-17T05:43:31.621Z,75.44
2023-01-17T05:46:00.829Z,75.62
2023-01-17T05:48:31.582Z,74.97
2023-01-17T05:51:02.056Z,75.29
2023-01-17T05:53:31.218Z,75.81
2023-01-17T05:56:00.432Z,75.15
2023-01-17T05:58:29.577Z,74.38
2023-01-17T06:00:58.839Z,74.50
2023-01-17T06:03:28.298Z,75.39
2023-01-17T06:05:58.826Z,74.51
2023-01-17T06:08:27.930Z,74.80
2023-01-17T06:10:57.062Z,74.87
2023-01-17T06:13:26.160Z,74.28
2023-01-17T06:15:58.034Z,74.53
2023-01-17T06:18:27.161Z,74.51
2023-01-17T06:20:56.544Z,74.72
2023-01-17T06:23:27.505Z,74.56
2023-01-17T06:25:56.652Z,75.24
2023-01-17T06:28:26.211Z,74.79
2023-01-17T06:30:55.334Z,74.87
2023-01-17T06:33:25.152Z,74.23
2023-01-17T06:35:55.484Z,74.69
2023-01-17T06:38:27.715Z,74.46
2023-01-17T06:41:00.670Z,74.26
2023-01-17T06:43:34.019Z,74.65
2023-01-17T06:46:03.296Z,74.93
2023-01-17T06:48:32.451Z,75.64
2023-01-17T06:51:01.624Z,76.27
2023-01-17T06:53:32.203Z,77.00
2023-01-17T06:56:01.410Z,79.19
2023-01-17T06:58:31.189Z,78.57
2023-01-17T07:01:00.682Z,78.91
2023-01-17T07:03:29.814Z,79.23
2023-01-17T07:05:59.042Z,78.02
2023-01-17T07:08:28.612Z,78.55
2023-01-17T07:11:02.699Z,78.14
2023-01-17T07:13:33.087Z,78.57
2023-01-17T07:16:04.112Z,78.93
2023-01-17T07:18:33.439Z,79.09
2023-01-17T07:21:02.891Z,79.40
2023-01-17T07:23:32.009Z,79.44
2023-01-17T07:26:03.439Z,79.62
2023-01-17T07:28:32.561Z,79.26
2023-01-17T07:31:06.074Z,78.56
2023-01-17T07:33:35.266Z,79.40
2023-01-17T07:36:07.132Z,79.57
2023-01-17T07:38:36.825Z,79.53
2023-01-17T07:41:08.439Z,79.27
2023-01-17T07:43:38.545Z,80.10
2023-01-17T07:46:08.995Z,79.92
2023-01-17T07:48:38.057Z,79.76
2023-01-17T07:51:07.426Z,80.11
2023-01-17T07:53:37.174Z,79.59
2023-01-17T07:56:09.616Z,79.86
2023-01-17T07:58:38.731Z,80.01
2023-01-17T08:01:10.213Z,80.00
2023-01-17T08:03:41.333Z,80.09
2023-01-17T08:06:18.154Z,80.09
2023-01-17T08:08:47.463Z,80.74
2023-01-17T08:11:18.589Z,81.01
2023-01-17T08:13:47.845Z,80.97
2023-01-17T08:16:17.006Z,80.84
2023-01-17T08:18:46.046Z,80.70
2023-01-17T08:21:17.168Z,81.03
2023-01-17T08:23:50.363Z,81.08
2023-01-17T08:26:23.072Z,80.60
2023-01-17T08:28:57.485Z,80.61
2023-01-17T08:31:26.589Z,80.37
2023-01-17T08:33:55.771Z,80.58
2023-01-17T08:36:26.154Z,80.00
2023-01-17T08:38:55.433Z,80.45
2023-01-17T08:41:28.221Z,80.98
2023-01-17T08:43:57.316Z,81.04
2023-01-17T08:46:26.401Z,81.16
2023-01-17T08:48:56.249Z,80.75
2023-01-17T08:51:26.783Z,80.96
2023-01-17T08:53:56.895Z,80.96
2023-01-17T08:56:27.836Z,80.99
2023-01-17T08:58:56.944Z,81.19
2023-01-17T09:01:26.212Z,81.43
2023-01-17T09:03:55.381Z,80.76
2023-01-17T09:06:24.626Z,81.28
2023-01-17T09:08:55.223Z,81.51
2023-01-17T09:11:24.377Z,81.49
2023-01-17T09:13:55.038Z,81.73
2023-01-17T09:16:24.332Z,81.42
2023-01-17T09:18:56.503Z,80.93
2023-01-17T09:21:26.332Z,81.21
2023-01-17T09:23:57.015Z,81.07
2023-01-17T09:26:27.839Z,81.19
2023-01-17T09:28:59.089Z,81.51
2023-01-17T09:31:28.733Z,81.83
2023-01-17T09:33:59.421Z,82.21
2023-01-17T09:36:32.279Z,82.16
2023-01-17T09:39:02.059Z,82.21
2023-01-17T09:41:33.774Z,82.36
2023-01-17T09:44:08.329Z,82.80
2023-01-17T09:46:43.367Z,82.88
2023-01-17T09:49:21.120Z,83.06
2023-01-17T09:51:50.243Z,83.16
2023-01-17T09:54:23.946Z,83.13
2023-01-17T09:57:02.703Z,83.18
2023-01-17T09:59:45.600Z,83.42
2023-01-17T10:02:40.344Z,83.48
2023-01-17T10:05:42.629Z,83.47
2023-01-17T10:08:35.565Z,83.35
2023-01-17T10:11:29.077Z,83.14
2023-01-17T10:14:12.194Z,83.01
2023-01-17T10:16:49.766Z,83.43
2023-01-17T10:19:35.428Z,83.50
2023-01-17T10:22:12.813Z,83.31
2023-01-17T10:25:20.602Z,83.64
2023-01-17T10:27:58.346Z,83.92
2023-01-17T10:30:32.786Z,83.55
2023-01-17T10:33:12.412Z,83.53
2023-01-17T10:35:51.475Z,83.80
2023-01-17T10:38:23.929Z,83.78
2023-01-17T10:40:59.203Z,83.91
2023-01-17T10:43:35.714Z,83.91
2023-01-17T10:46:05.061Z,83.42
2023-01-17T10:48:41.487Z,83.35
2023-01-17T10:51:23.685Z,84.18
2023-01-17T10:54:06.088Z,83.84
2023-01-17T10:56:36.346Z,83.90
2023-01-17T10:59:19.205Z,84.16
2023-01-17T11:01:50.367Z,84.32
2023-01-17T11:04:25.652Z,84.60
2023-01-17T11:07:13.024Z,84.91
2023-01-17T11:09:43.606Z,84.66
2023-01-17T11:12:26.499Z,84.43
2023-01-17T11:15:08.267Z,84.31
2023-01-17T11:17:40.281Z,84.37
2023-01-17T11:20:20.380Z,84.20
2023-01-17T11:23:06.505Z,84.40
2023-01-17T11:25:36.571Z,84.73
2023-01-17T11:28:08.938Z,84.62
2023-01-17T11:30:37.992Z,84.74
2023-01-17T11:33:30.821Z,84.37
2023-01-17T11:36:02.471Z,84.57
2023-01-17T11:38:31.544Z,84.38
2023-01-17T11:41:20.923Z,84.19
2023-01-17T11:43:53.780Z,84.12
2023-01-17T11:46:23.082Z,84.29
2023-01-17T11:48:56.187Z,84.31
2023-01-17T11:51:31.650Z,84.27
2023-01-17T11:54:15.602Z,84.35
2023-01-17T11:56:46.719Z,84.42
2023-01-17T11:59:39.159Z,84.57
2023-01-17T12:02:49.797Z,84.66
2023-01-17T12:05:40.329Z,84.83
2023-01-17T12:08:24.323Z,85.02
2023-01-17T12:11:02.870Z,84.76
2023-01-17T12:14:02.474Z,84.38
2023-01-17T12:16:44.815Z,84.29
2023-01-17T12:19:33.921Z,84.86
2023-01-17T12:22:17.960Z,84.76
2023-01-17T12:25:04.956Z,84.66
2023-01-17T12:27:43.516Z,85.14
2023-01-17T12:30:33.718Z,84.85
2023-01-17T12:33:26.215Z,85.27
2023-01-17T12:36:00.262Z,84.97
2023-01-17T12:38:36.611Z,84.71
2023-01-17T12:41:13.159Z,85.28
2023-01-17T12:43:43.755Z,85.19
2023-01-17T12:46:21.470Z,84.93
2023-01-17T12:48:54.232Z,84.98
2023-01-17T12:51:29.791Z,84.96
2023-01-17T12:54:04.697Z,85.06
2023-01-17T12:56:39.596Z,84.99
2023-01-17T12:59:15.651Z,85.33
2023-01-17T13:01:57.968Z,85.20
2023-01-17T13:04:31.368Z,85.28
2023-01-17T13:07:12.099Z,85.05
2023-01-17T13:09:48.292Z,84.88
2023-01-17T13:12:21.915Z,85.38
2023-01-17T13:14:51.292Z,85.27
2023-01-17T13:17:33.318Z,85.54
2023-01-17T13:20:10.302Z,85.54
2023-01-17T13:22:40.984Z,85.53
2023-01-17T13:25:23.674Z,85.55
2023-01-17T13:28:15.412Z,85.22
2023-01-17T13:31:07.279Z,85.20
2023-01-17T13:33:56.475Z,84.93
2023-01-17T13:36:41.871Z,84.87
2023-01-17T13:39:32.556Z,85.09
2023-01-17T13:42:13.706Z,84.92
2023-01-17T13:44:44.314Z,85.21
2023-01-17T13:47:39.247Z,85.04
2023-01-17T13:50:46.862Z,85.05
2023-01-17T13:53:49.402Z,84.79
2023-01-17T13:56:30.727Z,84.83
2023-01-17T13:59:27.479Z,84.70
2023-01-17T14:01:58.995Z,85.08
2023-01-17T14:05:08.650Z,84.57
2023-01-17T14:07:44.862Z,84.95
2023-01-17T14:10:34.281Z,84.42
2023-01-17T14:13:04.650Z,84.67
2023-01-17T14:15:36.668Z,84.81
2023-01-17T14:18:08.661Z,84.76
2023-01-17T14:20:52.913Z,85.13
2023-01-17T14:23:50.409Z,84.90
2023-01-17T14:26:39.312Z,84.64
2023-01-17T14:29:48.429Z,84.72
2023-01-17T14:32:20.484Z,85.03
2023-01-17T14:34:53.678Z,84.76
2023-01-17T14:37:32.103Z,84.97
2023-01-17T14:40:02.564Z,84.67
2023-01-17T14:42:34.339Z,84.53
2023-01-17T14:45:07.325Z,84.56
2023-01-17T14:47:39.829Z,84.67
2023-01-17T14:50:21.683Z,84.46
2023-01-17T14:53:20.994Z,84.89
2023-01-17T14:55:58.975Z,84.08
2023-01-17T14:58:30.658Z,83.91
2023-01-17T15:01:02.497Z,84.30
2023-01-17T15:03:35.569Z,84.67
2023-01-17T15:06:13.859Z,84.59
2023-01-17T15:08:43.297Z,84.70
2023-01-17T15:11:19.016Z,84.19
2023-01-17T15:13:50.937Z,84.12
2023-01-17T15:16:23.906Z,83.79
2023-01-17T15:18:54.429Z,84.05
2023-01-17T15:21:27.948Z,84.49
2023-01-17T15:23:59.688Z,83.96
2023-01-17T15:26:33.716Z,84.11
2023-01-17T15:29:07.068Z,84.27
2023-01-17T15:31:44.769Z,83.87
2023-01-17T15:34:24.385Z,83.71
2023-01-17T15:36:57.796Z,83.51
2023-01-17T15:39:30.766Z,83.29
2023-01-17T15:42:02.413Z,83.66
2023-01-17T15:44:48.651Z,84.20
2023-01-17T15:47:30.515Z,84.33
2023-01-17T15:50:00.652Z,84.06
2023-01-17T15:52:31.571Z,84.12
2023-01-17T15:55:12.898Z,83.98
2023-01-17T15:57:44.468Z,83.68
2023-01-17T16:00:22.443Z,83.57
2023-01-17T16:02:55.915Z,83.51
2023-01-17T16:05:42.173Z,83.43
2023-01-17T16:08:32.582Z,83.62
2023-01-17T16:11:03.718Z,83.52
2023-01-17T16:13:34.352Z,83.34
2023-01-17T16:16:14.791Z,83.11
2023-01-17T16:18:44.883Z,83.36
2023-01-17T16:21:23.184Z,82.70
2023-01-17T16:23:54.336Z,82.47
2023-01-17T16:26:23.934Z,82.51
2023-01-17T16:28:53.079Z,82.66
2023-01-17T16:31:22.214Z,82.43
2023-01-17T16:33:52.570Z,82.14
2023-01-17T16:36:23.282Z,81.82
2023-01-17T16:38:54.448Z,81.79
2023-01-17T16:41:23.952Z,81.91
2023-01-17T16:44:00.485Z,81.56
2023-01-17T16:46:30.311Z,81.57
2023-01-17T16:49:01.397Z,81.97
2023-01-17T16:51:30.599Z,81.52
2023-01-17T16:54:02.311Z,81.43
2023-01-17T16:56:31.606Z,81.05
2023-01-17T16:59:00.656Z,81.20
2023-01-17T17:01:30.300Z,81.43
2023-01-17T17:03:59.444Z,81.39
2023-01-17T17:06:28.568Z,81.53
2023-01-17T17:08:57.587Z,81.33
2023-01-17T17:11:28.308Z,81.68
2023-01-17T17:13:57.419Z,81.59
2023-01-17T17:16:30.271Z,81.40
2023-01-17T17:19:01.749Z,81.41
2023-01-17T17:21:32.234Z,81.27
2023-01-17T17:24:02.576Z,81.60
2023-01-17T17:26:35.354Z,81.17
2023-01-17T17:29:05.585Z,81.20
2023-01-17T17:31:34.672Z,81.18
2023-01-17T17:34:07.777Z,81.18
2023-01-17T17:36:37.649Z,81.21
2023-01-17T17:39:09.635Z,81.06
2023-01-17T17:41:43.896Z,81.06
2023-01-17T17:44:13.258Z,81.19
2023-01-17T17:46:42.575Z,81.09
2023-01-17T17:49:11.815Z,81.19
2023-01-17T17:51:42.559Z,81.00
2023-01-17T17:54:13.215Z,80.96
2023-01-17T17:56:47.790Z,81.05
2023-01-17T17:59:18.835Z,81.30
2023-01-17T18:01:52.828Z,81.29
2023-01-17T18:04:22.539Z,81.14
2023-01-17T18:06:51.806Z,80.99
2023-01-17T18:09:21.368Z,81.00
2023-01-17T18:11:52.161Z,80.88
2023-01-17T18:14:24.350Z,80.92
2023-01-17T18:16:53.761Z,81.12
2023-01-17T18:19:25.402Z,81.03
2023-01-17T18:21:55.963Z,80.80
2023-01-17T18:24:26.585Z,80.92
2023-01-17T18:26:58.765Z,80.76
2023-01-17T18:29:29.045Z,81.02
2023-01-17T18:31:58.344Z,81.68
2023-01-17T18:34:29.789Z,81.10
2023-01-17T18:36:59.598Z,80.68
2023-01-17T18:39:30.457Z,80.95
2023-01-17T18:42:01.585Z,80.76
2023-01-17T18:44:31.417Z,80.71
2023-01-17T18:47:05.187Z,81.11
2023-01-17T18:49:34.543Z,81.01
2023-01-17T18:52:03.967Z,81.32
2023-01-17T18:54:33.300Z,80.81
2023-01-17T18:57:04.082Z,81.18
2023-01-17T18:59:33.293Z,81.40
2023-01-17T19:02:02.492Z,81.74
2023-01-17T19:04:34.365Z,81.50
2023-01-17T19:07:03.658Z,81.95
2023-01-17T19:09:33.240Z,81.66
2023-01-17T19:12:04.036Z,82.02
2023-01-17T19:14:33.290Z,81.51
2023-01-17T19:17:02.528Z,81.67
2023-01-17T19:19:31.952Z,81.97
2023-01-17T19:22:01.196Z,81.82
2023-01-17T19:24:30.393Z,81.46
2023-01-17T19:26:59.669Z,81.58
2023-01-17T19:29:30.518Z,81.85
2023-01-17T19:31:59.789Z,81.62
2023-01-17T19:34:29.018Z,81.83
2023-01-17T19:36:58.249Z,81.82
2023-01-17T19:39:29.101Z,81.67
2023-01-17T19:41:58.298Z,81.98
2023-01-17T19:44:29.072Z,81.75
2023-01-17T19:46:58.397Z,81.97
2023-01-17T19:49:27.655Z,81.59
2023-01-17T19:51:56.898Z,81.55
2023-01-17T19:54:26.151Z,81.85
2023-01-17T19:56:55.426Z,81.68
2023-01-17T19:59:24.638Z,81.85
2023-01-17T20:01:55.789Z,81.95
2023-01-17T20:04:25.910Z,82.02
2023-01-17T20:06:58.159Z,82.12
2023-01-17T20:09:28.226Z,82.08
2023-01-17T20:11:57.735Z,82.24
2023-01-17T20:14:27.492Z,82.37
2023-01-17T20:16:58.243Z,82.14
2023-01-17T20:19:27.576Z,82.42
2023-01-17T20:21:56.803Z,82.57
2023-01-17T20:24:26.040Z,83.13
2023-01-17T20:26:55.294Z,82.56
2023-01-17T20:29:24.593Z,82.61
2023-01-17T20:31:54.177Z,82.12
2023-01-17T20:34:26.389Z,82.05
2023-01-17T20:36:58.436Z,82.45
2023-01-17T20:39:27.776Z,82.52
2023-01-17T20:41:58.136Z,82.32
2023-01-17T20:44:27.467Z,82.29
2023-01-17T20:46:56.689Z,82.47
2023-01-17T20:49:27.769Z,82.22
2023-01-17T20:51:58.400Z,82.83
2023-01-17T20:54:28.030Z,82.65
2023-01-17T20:56:57.288Z,81.94
2023-01-17T20:59:26.570Z,81.70
2023-01-17T21:01:55.824Z,82.12
2023-01-17T21:04:27.416Z,81.45
2023-01-17T21:06:57.970Z,81.41
2023-01-17T21:09:27.427Z,81.72
2023-01-17T21:12:01.505Z,81.93
2023-01-17T21:14:31.305Z,81.72
2023-01-17T21:17:00.800Z,82.19
2023-01-17T21:19:32.059Z,82.35
2023-01-17T21:22:01.904Z,81.94
2023-01-17T21:24:31.201Z,81.97
2023-01-17T21:27:01.000Z,82.57
2023-01-17T21:29:32.069Z,82.32
2023-01-17T21:32:01.415Z,81.80
2023-01-17T21:34:33.918Z,81.95
2023-01-17T21:37:03.234Z,81.75
2023-01-17T21:39:32.661Z,81.53
2023-01-17T21:42:01.923Z,82.17
2023-01-17T21:44:36.635Z,81.97
2023-01-17T21:47:06.021Z,82.18
2023-01-17T21:49:36.809Z,82.10
2023-01-17T21:52:21.327Z,81.94
2023-01-17T21:55:07.447Z,82.09
2023-01-17T21:57:54.106Z,81.63
2023-01-17T22:00:25.146Z,81.94
2023-01-17T22:02:54.509Z,81.63
2023-01-17T22:05:25.388Z,81.99
2023-01-17T22:08:13.093Z,81.99
2023-01-17T22:10:46.349Z,81.81
2023-01-17T22:13:16.295Z,81.71
2023-01-17T22:15:45.873Z,82.07
2023-01-17T22:18:16.096Z,81.83
2023-01-17T22:20:46.835Z,81.86
2023-01-17T22:23:16.101Z,81.80
2023-01-17T22:25:45.414Z,81.84
2023-01-17T22:28:14.835Z,81.79
2023-01-17T22:30:44.146Z,81.67
2023-01-17T22:33:13.397Z,81.61
2023-01-17T22:35:42.683Z,82.02
2023-01-17T22:38:13.373Z,81.59
2023-01-17T22:40:42.781Z,81.77
2023-01-17T22:43:11.943Z,81.49
2023-01-17T22:45:41.286Z,81.58
2023-01-17T22:48:10.783Z,81.11
2023-01-17T22:50:39.990Z,81.23
2023-01-17T22:53:10.862Z,81.86
2023-01-17T22:55:41.609Z,81.96
2023-01-17T22:58:10.791Z,81.46
2023-01-17T23:00:40.195Z,81.41
2023-01-17T23:03:09.503Z,81.40
2023-01-17T23:05:47.485Z,81.29
2023-01-17T23:08:16.857Z,82.17
2023-01-17T23:11:05.345Z,81.69
2023-01-17T23:13:34.552Z,81.75
2023-01-17T23:16:24.365Z,81.64
2023-01-17T23:19:10.727Z,81.46
2023-01-17T23:21:56.948Z,81.64
2023-01-17T23:24:26.263Z,81.68
2023-01-17T23:27:13.768Z,81.38
2023-01-17T23:29:43.014Z,81.54
2023-01-17T23:32:12.383Z,81.90
2023-01-17T23:34:41.802Z,82.14
2023-01-17T23:37:11.082Z,82.38
2023-01-17T23:39:40.346Z,82.53
2023-01-17T23:42:28.299Z,82.79
2023-01-17T23:44:57.567Z,82.57
2023-01-17T23:47:26.790Z,81.50
2023-01-17T23:49:57.017Z,81.22
2023-01-17T23:52:26.172Z,81.16
2023-01-17T23:54:55.403Z,81.67
2023-01-17T23:57:26.277Z,81.87
2023-01-17T23:59:55.457Z,81.69
